createdAt,value
2018-09-23T00:02:18.391Z,101020.00
2018-09-23T00:04:47.286Z,101006.00
2018-09-23T00:07:16.236Z,101012.00
2018-09-23T00:09:45.079Z,101022.00
2018-09-23T00:12:13.939Z,101011.00
2018-09-23T00:14:42.882Z,101013.00
2018-09-23T00:17:11.813Z,101015.00
2018-09-23T00:19:40.659Z,101011.00
2018-09-23T00:22:09.580Z,101022.00
2018-09-23T00:24:38.453Z,101021.00
2018-09-23T00:27:07.377Z,101021.00
2018-09-23T00:29:41.496Z,101016.00
2018-09-23T00:32:10.419Z,101010.00
2018-09-23T00:34:39.341Z,101019.00
2018-09-23T00:37:08.464Z,101009.00
2018-09-23T00:39:37.325Z,101007.00
2018-09-23T00:42:06.241Z,101019.00
2018-09-23T00:44:35.081Z,101009.00
2018-09-23T00:47:03.969Z,101005.00
2018-09-23T00:49:32.881Z,101006.00
2018-09-23T00:52:01.705Z,101012.00
2018-09-23T00:54:30.714Z,101012.00
2018-09-23T00:56:59.582Z,101007.00
2018-09-23T00:59:28.525Z,101009.00
2018-09-23T01:01:57.407Z,101002.00
2018-09-23T01:04:26.320Z,100994.00
2018-09-23T01:06:55.200Z,101003.00
2018-09-23T01:09:24.085Z,100999.00
2018-09-23T01:11:52.964Z,100986.00
2018-09-23T01:14:21.852Z,101002.00
2018-09-23T01:16:50.748Z,100989.00
2018-09-23T01:19:19.622Z,100991.00
2018-09-23T01:21:48.874Z,100986.00
2018-09-23T01:24:17.792Z,100988.00
2018-09-23T01:26:46.720Z,100985.00
2018-09-23T01:29:15.569Z,100986.00
2018-09-23T01:31:44.481Z,100983.00
2018-09-23T01:34:13.378Z,100981.00
2018-09-23T01:36:42.303Z,100984.00
2018-09-23T01:39:11.181Z,100978.00
2018-09-23T01:41:40.109Z,100974.00
2018-09-23T01:44:09.022Z,100970.00
2018-09-23T01:46:37.936Z,100968.00
2018-09-23T01:49:06.852Z,100961.00
2018-09-23T01:51:35.728Z,100963.00
2018-09-23T01:54:04.607Z,100968.00
2018-09-23T01:56:33.476Z,100960.00
2018-09-23T01:59:02.319Z,100964.00
2018-09-23T02:01:31.228Z,100958.00
2018-09-23T02:04:00.117Z,100964.00
2018-09-23T02:06:28.996Z,100969.00
2018-09-23T02:08:57.860Z,100952.00
2018-09-23T02:11:26.754Z,100954.00
2018-09-23T02:13:55.651Z,100957.00
2018-09-23T02:16:24.502Z,100960.00
2018-09-23T02:18:53.347Z,100957.00
2018-09-23T02:21:22.349Z,100958.00
2018-09-23T02:23:51.194Z,100968.00
2018-09-23T02:26:20.086Z,100959.00
2018-09-23T02:28:49.186Z,100966.00
2018-09-23T02:31:18.201Z,100960.00
2018-09-23T02:33:47.164Z,100957.00
2018-09-23T02:36:16.041Z,100952.00
2018-09-23T02:38:44.955Z,100943.00
2018-09-23T02:41:13.878Z,100938.00
2018-09-23T02:43:42.780Z,100940.00
2018-09-23T02:46:11.628Z,100938.00
2018-09-23T02:48:40.515Z,100936.00
2018-09-23T02:51:09.385Z,100939.00
2018-09-23T02:53:38.379Z,100933.00
2018-09-23T02:56:07.303Z,100931.00
2018-09-23T02:58:36.227Z,100931.00
2018-09-23T03:01:05.119Z,100937.00
2018-09-23T03:03:34.009Z,100934.00
2018-09-23T03:06:02.979Z,100919.00
2018-09-23T03:08:31.905Z,100927.00
2018-09-23T03:11:00.768Z,100923.00
2018-09-23T03:13:29.644Z,100920.00
2018-09-23T03:15:58.552Z,100916.00
2018-09-23T03:18:27.396Z,100909.00
2018-09-23T03:20:56.289Z,100906.00
2018-09-23T03:23:25.190Z,100907.00
2018-09-23T03:25:54.031Z,100924.00
2018-09-23T03:28:22.900Z,100907.00
2018-09-23T03:30:51.803Z,100919.00
2018-09-23T03:33:20.703Z,100921.00
2018-09-23T03:35:49.616Z,100915.00
2018-09-23T03:38:18.517Z,100916.00
2018-09-23T03:40:47.428Z,100920.00
2018-09-23T03:43:16.267Z,100916.00
2018-09-23T03:45:45.216Z,100915.00
2018-09-23T03:48:14.044Z,100913.00
2018-09-23T03:50:43.001Z,100911.00
2018-09-23T03:53:11.898Z,100908.00
2018-09-23T03:55:40.825Z,100904.00
2018-09-23T03:58:09.809Z,100899.00
2018-09-23T04:00:38.852Z,100894.00
2018-09-23T04:03:07.996Z,100898.00
2018-09-23T04:05:36.912Z,100891.00
2018-09-23T04:08:06.171Z,100892.00
2018-09-23T04:10:35.096Z,100896.00
2018-09-23T04:13:04.045Z,100898.00
2018-09-23T04:15:32.936Z,100903.00
2018-09-23T04:18:01.775Z,100906.00
2018-09-23T04:20:30.673Z,100903.00
2018-09-23T04:22:59.579Z,100906.00
2018-09-23T04:25:28.444Z,100903.00
2018-09-23T04:27:57.443Z,100896.00
2018-09-23T04:30:26.291Z,100890.00
2018-09-23T04:32:55.157Z,100904.00
2018-09-23T04:35:24.038Z,100892.00
2018-09-23T04:37:53.065Z,100898.00
2018-09-23T04:40:22.013Z,100894.00
2018-09-23T04:42:50.862Z,100891.00
2018-09-23T04:45:19.749Z,100870.00
2018-09-23T04:47:48.672Z,100887.00
2018-09-23T04:50:17.532Z,100881.00
2018-09-23T04:52:46.569Z,100877.00
2018-09-23T04:55:15.436Z,100886.00
2018-09-23T04:57:44.331Z,100893.00
2018-09-23T05:00:13.204Z,100886.00
2018-09-23T05:02:42.154Z,100883.00
2018-09-23T05:05:11.038Z,100877.00
2018-09-23T05:07:39.926Z,100880.00
2018-09-23T05:10:08.799Z,100876.00
2018-09-23T05:12:37.663Z,100877.00
2018-09-23T05:15:07.110Z,100872.00
2018-09-23T05:17:36.070Z,100871.00
2018-09-23T05:20:05.384Z,100873.00
2018-09-23T05:22:34.293Z,100866.00
2018-09-23T05:25:04.020Z,100862.00
2018-09-23T05:27:32.907Z,100860.00
2018-09-23T05:30:01.820Z,100856.00
2018-09-23T05:32:30.747Z,100846.00
2018-09-23T05:34:59.660Z,100849.00
2018-09-23T05:37:28.559Z,100851.00
2018-09-23T05:39:57.437Z,100853.00
2018-09-23T05:42:26.483Z,100865.00
2018-09-23T05:44:55.380Z,100844.00
2018-09-23T05:47:24.298Z,100843.00
2018-09-23T05:49:53.196Z,100837.00
2018-09-23T05:52:22.096Z,100832.00
2018-09-23T05:54:50.991Z,100843.00
2018-09-23T05:57:19.889Z,100831.00
2018-09-23T05:59:48.822Z,100822.00
2018-09-23T06:02:17.761Z,100819.00
2018-09-23T06:04:46.615Z,100828.00
2018-09-23T06:07:15.586Z,100831.00
2018-09-23T06:09:44.473Z,100830.00
2018-09-23T06:12:13.352Z,100825.00
2018-09-23T06:14:42.272Z,100823.00
2018-09-23T06:17:11.196Z,100821.00
2018-09-23T06:19:40.077Z,100825.00
2018-09-23T06:22:08.927Z,100833.00
2018-09-23T06:24:37.838Z,100828.00
2018-09-23T06:27:06.692Z,100831.00
2018-09-23T06:29:35.543Z,100833.00
2018-09-23T06:32:04.444Z,100819.00
2018-09-23T06:34:33.318Z,100823.00
2018-09-23T06:37:02.300Z,100824.00
2018-09-23T06:39:31.204Z,100817.00
2018-09-23T06:42:00.051Z,100822.00
2018-09-23T06:44:30.255Z,100846.00
2018-09-23T06:46:59.987Z,100847.00
2018-09-23T06:49:29.193Z,100863.00
2018-09-23T06:51:58.077Z,100859.00
2018-09-23T06:54:26.956Z,100848.00
2018-09-23T06:56:55.936Z,100843.00
2018-09-23T06:59:24.834Z,100846.00
2018-09-23T07:01:53.655Z,100830.00
2018-09-23T07:04:22.565Z,100839.00
2018-09-23T07:06:51.425Z,100853.00
2018-09-23T07:09:20.256Z,100852.00
2018-09-23T07:11:49.169Z,100844.00
2018-09-23T07:14:18.056Z,100838.00
2018-09-23T07:16:46.949Z,100850.00
2018-09-23T07:19:15.844Z,100844.00
2018-09-23T07:21:44.712Z,100843.00
2018-09-23T07:24:13.643Z,100827.00
2018-09-23T07:26:42.502Z,100830.00
2018-09-23T07:29:11.589Z,100827.00
2018-09-23T07:31:40.458Z,100828.00
2018-09-23T07:34:09.335Z,100830.00
2018-09-23T07:36:38.272Z,100830.00
2018-09-23T07:39:08.827Z,100836.00
2018-09-23T07:41:37.747Z,100831.00
2018-09-23T07:44:07.257Z,100827.00
2018-09-23T07:46:36.111Z,100831.00
2018-09-23T07:49:05.001Z,100834.00
2018-09-23T07:51:33.887Z,100848.00
2018-09-23T07:54:02.825Z,100850.00
2018-09-23T07:56:31.812Z,100854.00
2018-09-23T07:59:00.671Z,100844.00
2018-09-23T08:01:29.491Z,100836.00
2018-09-23T08:03:58.504Z,100836.00
2018-09-23T08:06:27.387Z,100848.00
2018-09-23T08:08:56.289Z,100833.00
2018-09-23T08:11:25.213Z,100812.00
2018-09-23T08:13:54.235Z,100822.00
2018-09-23T08:16:23.036Z,100816.00
2018-09-23T08:18:51.937Z,100803.00
2018-09-23T08:21:20.843Z,100810.00
2018-09-23T08:23:49.693Z,100803.00
2018-09-23T08:26:18.632Z,100800.00
2018-09-23T08:28:47.486Z,100803.00
2018-09-23T08:31:16.368Z,100805.00
2018-09-23T08:33:45.223Z,100796.00
2018-09-23T08:36:14.072Z,100795.00
2018-09-23T08:38:43.300Z,100794.00
2018-09-23T08:41:12.195Z,100785.00
2018-09-23T08:43:41.082Z,100778.00
2018-09-23T08:46:09.956Z,100783.00
2018-09-23T08:48:38.918Z,100787.00
2018-09-23T08:51:08.181Z,100795.00
2018-09-23T08:53:37.059Z,100783.00
2018-09-23T08:56:06.082Z,100779.00
2018-09-23T08:58:35.303Z,100774.00
2018-09-23T09:01:04.147Z,100788.00
2018-09-23T09:03:33.066Z,100776.00
2018-09-23T09:06:01.986Z,100792.00
2018-09-23T09:08:30.905Z,100785.00
2018-09-23T09:10:59.792Z,100784.00
2018-09-23T09:13:28.698Z,100762.00
2018-09-23T09:15:57.578Z,100754.00
2018-09-23T09:18:26.539Z,100756.00
2018-09-23T09:20:55.381Z,100736.00
2018-09-23T09:23:24.211Z,100733.00
2018-09-23T09:25:53.140Z,100741.00
2018-09-23T09:28:22.024Z,100732.00
2018-09-23T09:30:50.956Z,100729.00
2018-09-23T09:33:19.963Z,100728.00
2018-09-23T09:35:49.087Z,100721.00
2018-09-23T09:38:18.013Z,100715.00
2018-09-23T09:40:46.912Z,100729.00
2018-09-23T09:43:15.837Z,100730.00
2018-09-23T09:45:44.691Z,100724.00
2018-09-23T09:48:13.597Z,100732.00
2018-09-23T09:50:42.483Z,100737.00
2018-09-23T09:53:11.390Z,100743.00
2018-09-23T09:55:40.219Z,100746.00
2018-09-23T09:58:09.075Z,100749.00
2018-09-23T10:00:37.949Z,100752.00
2018-09-23T10:03:07.533Z,100753.00
2018-09-23T10:05:36.401Z,100751.00
2018-09-23T10:08:05.259Z,100736.00
2018-09-23T10:12:15.832Z,100715.00
2018-09-23T10:14:44.758Z,100712.00
2018-09-23T10:17:13.634Z,100700.00
2018-09-23T10:19:42.627Z,100688.00
2018-09-23T10:22:11.472Z,100686.00
2018-09-23T10:24:40.360Z,100690.00
2018-09-23T10:27:09.279Z,100684.00
2018-09-23T10:29:38.332Z,100685.00
2018-09-23T10:32:07.224Z,100675.00
2018-09-23T10:34:36.178Z,100671.00
2018-09-23T10:37:05.099Z,100666.00
2018-09-23T10:39:34.115Z,100666.00
2018-09-23T10:42:03.144Z,100660.00
2018-09-23T10:44:32.016Z,100653.00
2018-09-23T10:47:00.867Z,100659.00
2018-09-23T10:49:29.748Z,100645.00
2018-09-23T10:51:58.629Z,100620.00
2018-09-23T10:54:27.497Z,100602.00
2018-09-23T10:56:56.401Z,100596.00
2018-09-23T10:59:25.253Z,100591.00
2018-09-23T11:01:54.385Z,100611.00
2018-09-23T11:04:23.309Z,100604.00
2018-09-23T11:06:52.307Z,100602.00
2018-09-23T11:09:21.246Z,100588.00
2018-09-23T11:11:50.265Z,100595.00
2018-09-23T11:14:19.521Z,100576.00
2018-09-23T11:16:48.448Z,100589.00
2018-09-23T11:19:17.350Z,100583.00
2018-09-23T11:21:46.240Z,100582.00
2018-09-23T11:24:15.077Z,100573.00
2018-09-23T11:26:43.927Z,100578.00
2018-09-23T11:29:12.755Z,100570.00
2018-09-23T11:31:41.702Z,100569.00
2018-09-23T11:34:10.642Z,100560.00
2018-09-23T11:36:39.546Z,100539.00
2018-09-23T11:39:10.615Z,100539.00
2018-09-23T11:41:39.487Z,100531.00
2018-09-23T11:44:08.628Z,100527.00
2018-09-23T11:46:37.516Z,100510.00
2018-09-23T11:49:06.601Z,100507.00
2018-09-23T11:51:35.517Z,100508.00
2018-09-23T11:54:04.442Z,100513.00
2018-09-23T11:56:33.285Z,100513.00
2018-09-23T11:59:02.223Z,100506.00
2018-09-23T12:01:31.101Z,100507.00
2018-09-23T12:04:00.021Z,100483.00
2018-09-23T12:06:28.909Z,100470.00
2018-09-23T12:08:57.834Z,100467.00
2018-09-23T12:11:26.794Z,100463.00
2018-09-23T12:13:55.707Z,100459.00
2018-09-23T12:16:24.630Z,100455.00
2018-09-23T12:18:53.538Z,100463.00
2018-09-23T12:21:22.480Z,100436.00
2018-09-23T12:23:51.383Z,100431.00
2018-09-23T12:26:20.284Z,100413.00
2018-09-23T12:28:49.166Z,100404.00
2018-09-23T12:31:18.776Z,100412.00
2018-09-23T12:33:47.933Z,100407.00
2018-09-23T12:36:16.892Z,100392.00
2018-09-23T12:38:45.821Z,100410.00
2018-09-23T12:41:14.771Z,100416.00
2018-09-23T12:43:43.679Z,100424.00
2018-09-23T12:46:12.626Z,100416.00
2018-09-23T12:48:41.471Z,100420.00
2018-09-23T12:51:10.405Z,100423.00
2018-09-23T12:53:39.316Z,100424.00
2018-09-23T12:56:08.204Z,100406.00
2018-09-23T12:58:37.107Z,100413.00
2018-09-23T13:01:06.065Z,100406.00
2018-09-23T13:03:34.993Z,100390.00
2018-09-23T13:06:03.926Z,100386.00
2018-09-23T13:08:32.846Z,100393.00
2018-09-23T13:11:01.748Z,100391.00
2018-09-23T13:13:30.665Z,100380.00
2018-09-23T13:15:59.595Z,100383.00
2018-09-23T13:18:28.445Z,100376.00
2018-09-23T13:20:57.276Z,100378.00
2018-09-23T13:23:26.166Z,100371.00
2018-09-23T13:25:55.151Z,100365.00
2018-09-23T13:28:24.055Z,100377.00
2018-09-23T13:30:52.959Z,100363.00
2018-09-23T13:33:21.916Z,100345.00
2018-09-23T13:35:50.808Z,100339.00
2018-09-23T13:38:19.666Z,100342.00
2018-09-23T13:40:48.610Z,100331.00
2018-09-23T13:43:17.450Z,100318.00
2018-09-23T13:45:46.352Z,100320.00
2018-09-23T13:48:15.275Z,100313.00
2018-09-23T13:50:44.163Z,100307.00
2018-09-23T13:53:13.051Z,100290.00
2018-09-23T13:55:41.916Z,100280.00
2018-09-23T13:58:10.844Z,100262.00
2018-09-23T14:00:39.776Z,100257.00
2018-09-23T14:03:08.892Z,100244.00
2018-09-23T14:05:37.889Z,100254.00
2018-09-23T14:08:06.759Z,100247.00
2018-09-23T14:10:35.623Z,100182.00
2018-09-23T14:13:04.851Z,100143.00
2018-09-23T14:15:33.759Z,100151.00
2018-09-23T14:18:02.657Z,100129.00
2018-09-23T14:20:31.590Z,100121.00
2018-09-23T14:23:00.513Z,100119.00
2018-09-23T14:25:29.464Z,100099.00
2018-09-23T14:27:58.389Z,100048.00
2018-09-23T14:30:27.263Z,100019.00
2018-09-23T14:32:56.197Z,100050.00
2018-09-23T14:35:25.131Z,100035.00
2018-09-23T14:37:53.988Z,100049.00
2018-09-23T14:40:22.949Z,100087.00
2018-09-23T14:42:51.860Z,100136.00
2018-09-23T14:45:20.757Z,100138.00
2018-09-23T14:47:49.717Z,100137.00
2018-09-23T14:50:18.692Z,100120.00
2018-09-23T14:52:47.510Z,100117.00
2018-09-23T14:55:16.475Z,100112.00
2018-09-23T14:57:45.199Z,100084.00
2018-09-23T15:00:14.078Z,100073.00
2018-09-23T15:02:42.935Z,100070.00
2018-09-23T15:05:11.828Z,100078.00
2018-09-23T15:07:40.679Z,100088.00
2018-09-23T15:10:09.519Z,100090.00
2018-09-23T15:12:38.427Z,100088.00
2018-09-23T15:15:07.296Z,100093.00
2018-09-23T15:17:36.143Z,100089.00
2018-09-23T15:20:05.291Z,100092.00
2018-09-23T15:22:34.195Z,100105.00
2018-09-23T15:25:03.080Z,100102.00
2018-09-23T15:27:31.903Z,100102.00
2018-09-23T15:30:00.817Z,100078.00
2018-09-23T15:32:29.676Z,100045.00
2018-09-23T15:34:58.585Z,100038.00
2018-09-23T15:37:27.419Z,100040.00
2018-09-23T15:39:56.314Z,100056.00
2018-09-23T15:42:25.213Z,100038.00
2018-09-23T15:44:54.076Z,100022.00
2018-09-23T15:47:22.926Z,100025.00
2018-09-23T15:49:51.827Z,100029.00
2018-09-23T15:52:20.691Z,100026.00
2018-09-23T15:54:49.642Z,100033.00
2018-09-23T15:57:18.512Z,100032.00
2018-09-23T15:59:47.389Z,100027.00
2018-09-23T16:02:16.234Z,100020.00
2018-09-23T16:04:45.067Z,100013.00
2018-09-23T16:07:13.952Z,99999.00
2018-09-23T16:09:42.847Z,99997.00
2018-09-23T16:12:11.777Z,99989.00
2018-09-23T16:14:40.780Z,99987.00
2018-09-23T16:17:09.700Z,99994.00
2018-09-23T16:19:38.588Z,99992.00
2018-09-23T16:22:07.460Z,100001.00
2018-09-23T16:24:36.452Z,100018.00
2018-09-23T16:27:05.337Z,99990.00
2018-09-23T16:29:34.183Z,99968.00
2018-09-23T16:32:03.218Z,99973.00
2018-09-23T16:34:32.051Z,99971.00
2018-09-23T16:37:00.973Z,99968.00
2018-09-23T16:39:29.888Z,99958.00
2018-09-23T16:41:58.747Z,99944.00
2018-09-23T16:44:27.611Z,99934.00
2018-09-23T16:46:56.528Z,99924.00
2018-09-23T16:49:25.408Z,99889.00
2018-09-23T16:51:54.285Z,99838.00
2018-09-23T16:54:23.313Z,99812.00
2018-09-23T16:56:52.177Z,99848.00
2018-09-23T16:59:21.133Z,99839.00
2018-09-23T17:01:50.060Z,99846.00
2018-09-23T17:04:18.910Z,99872.00
2018-09-23T17:06:47.954Z,99904.00
2018-09-23T17:09:16.865Z,99928.00
2018-09-23T17:11:45.739Z,99936.00
2018-09-23T17:14:14.604Z,99934.00
2018-09-23T17:16:43.527Z,99951.00
2018-09-23T17:19:12.425Z,99954.00
2018-09-23T17:21:41.296Z,99917.00
2018-09-23T17:24:10.194Z,99891.00
2018-09-23T17:26:39.081Z,99902.00
2018-09-23T17:29:08.111Z,99960.00
2018-09-23T17:31:36.984Z,99997.00
2018-09-23T17:34:06.544Z,99987.00
2018-09-23T17:36:35.408Z,99977.00
2018-09-23T17:39:07.361Z,99960.00
2018-09-23T17:41:36.260Z,99942.00
2018-09-23T17:44:05.153Z,99954.00
2018-09-23T17:46:34.138Z,99991.00
2018-09-23T17:49:03.274Z,100024.00
2018-09-23T17:51:32.483Z,100012.00
2018-09-23T17:54:01.553Z,99995.00
2018-09-23T17:56:30.472Z,99984.00
2018-09-23T17:58:59.464Z,99991.00
2018-09-23T18:01:28.403Z,100032.00
2018-09-23T18:03:57.364Z,100058.00
2018-09-23T18:06:26.251Z,100055.00
2018-09-23T18:08:55.108Z,100085.00
2018-09-23T18:11:23.988Z,100067.00
2018-09-23T18:13:53.730Z,100008.00
2018-09-23T18:16:22.588Z,99996.00
2018-09-23T18:18:51.670Z,100005.00
2018-09-23T18:21:20.622Z,100061.00
2018-09-23T18:23:49.483Z,100101.00
2018-09-23T18:26:18.364Z,100125.00
2018-09-23T18:28:47.260Z,100161.00
2018-09-23T18:31:16.114Z,100175.00
2018-09-23T18:33:45.021Z,100208.00
2018-09-23T18:36:13.934Z,100213.00
2018-09-23T18:38:42.941Z,100250.00
2018-09-23T18:41:11.854Z,100255.00
2018-09-23T18:43:40.786Z,100254.00
2018-09-23T18:46:09.639Z,100227.00
2018-09-23T18:48:38.556Z,100191.00
2018-09-23T18:51:07.476Z,100190.00
2018-09-23T18:53:36.412Z,100183.00
2018-09-23T18:56:05.314Z,100180.00
2018-09-23T18:58:34.222Z,100166.00
2018-09-23T19:01:03.121Z,100154.00
2018-09-23T19:03:32.068Z,100146.00
2018-09-23T19:06:00.950Z,100139.00
2018-09-23T19:08:29.832Z,100126.00
2018-09-23T19:10:58.675Z,100127.00
2018-09-23T19:13:33.044Z,100128.00
2018-09-23T19:16:07.148Z,100130.00
2018-09-23T19:18:36.103Z,100163.00
2018-09-23T19:21:04.987Z,100187.00
2018-09-23T19:23:33.874Z,100207.00
2018-09-23T19:26:02.812Z,100258.00
2018-09-23T19:28:31.700Z,100294.00
2018-09-23T19:31:00.591Z,100316.00
2018-09-23T19:33:29.542Z,100319.00
2018-09-23T19:35:58.445Z,100304.00
2018-09-23T19:38:27.322Z,100308.00
2018-09-23T19:40:56.208Z,100288.00
2018-09-23T19:43:25.083Z,100302.00
2018-09-23T19:45:53.976Z,100289.00
2018-09-23T19:48:22.864Z,100311.00
2018-09-23T19:50:51.810Z,100293.00
2018-09-23T19:53:20.676Z,100283.00
2018-09-23T19:55:49.811Z,100288.00
2018-09-23T19:58:18.702Z,100295.00
2018-09-23T20:00:47.561Z,100287.00
2018-09-23T20:03:16.651Z,100292.00
2018-09-23T20:05:45.724Z,100311.00
2018-09-23T20:08:14.628Z,100311.00
2018-09-23T20:10:43.602Z,100316.00
2018-09-23T20:13:12.452Z,100335.00
2018-09-23T20:15:41.402Z,100345.00
2018-09-23T20:18:10.336Z,100357.00
2018-09-23T20:20:39.196Z,100368.00
2018-09-23T20:23:08.076Z,100371.00
2018-09-23T20:25:36.988Z,100366.00
2018-09-23T20:28:05.908Z,100363.00
2018-09-23T20:30:34.781Z,100376.00
2018-09-23T20:33:03.650Z,100375.00
2018-09-23T20:35:32.501Z,100382.00
2018-09-23T20:38:01.323Z,100385.00
2018-09-23T20:40:30.212Z,100394.00
2018-09-23T20:42:59.044Z,100405.00
2018-09-23T20:45:27.968Z,100412.00
2018-09-23T20:47:56.816Z,100419.00
2018-09-23T20:50:25.676Z,100436.00
2018-09-23T20:52:54.551Z,100438.00
2018-09-23T20:55:23.673Z,100450.00
2018-09-23T20:57:52.590Z,100455.00
2018-09-23T21:00:21.492Z,100467.00
2018-09-23T21:02:50.404Z,100464.00
2018-09-23T21:05:19.254Z,100470.00
2018-09-23T21:07:48.107Z,100479.00
2018-09-23T21:10:16.975Z,100464.00
2018-09-23T21:12:45.836Z,100480.00
2018-09-23T21:15:14.777Z,100483.00
2018-09-23T21:17:43.673Z,100476.00
2018-09-23T21:20:12.558Z,100477.00
2018-09-23T21:22:41.412Z,100480.00
2018-09-23T21:25:10.305Z,100483.00
2018-09-23T21:27:39.192Z,100487.00
2018-09-23T21:30:08.110Z,100495.00
2018-09-23T21:32:37.013Z,100500.00
2018-09-23T21:35:06.331Z,100512.00
2018-09-23T21:37:35.244Z,100508.00
2018-09-23T21:40:04.114Z,100506.00
2018-09-23T21:42:33.004Z,100507.00
2018-09-23T21:45:01.852Z,100516.00
2018-09-23T21:47:30.687Z,100508.00
2018-09-23T21:49:59.535Z,100527.00
2018-09-23T21:52:28.404Z,100542.00
2018-09-23T21:54:57.326Z,100543.00
2018-09-23T21:57:26.212Z,100560.00
2018-09-23T21:59:55.109Z,100560.00
2018-09-23T22:02:24.020Z,100572.00
2018-09-23T22:04:53.030Z,100565.00
2018-09-23T22:07:21.943Z,100576.00
2018-09-23T22:09:50.858Z,100582.00
2018-09-23T22:12:19.770Z,100589.00
2018-09-23T22:14:48.666Z,100595.00
2018-09-23T22:17:17.601Z,100597.00
2018-09-23T22:19:46.490Z,100596.00
2018-09-23T22:22:15.362Z,100599.00
2018-09-23T22:24:44.291Z,100597.00
2018-09-23T22:27:13.220Z,100601.00
2018-09-23T22:29:42.154Z,100608.00
2018-09-23T22:32:11.307Z,100610.00
2018-09-23T22:34:40.201Z,100609.00
2018-09-23T22:37:09.071Z,100627.00
2018-09-23T22:39:38.010Z,100631.00
2018-09-23T22:42:07.352Z,100631.00
2018-09-23T22:44:36.211Z,100635.00
2018-09-23T22:47:05.221Z,100624.00
2018-09-23T22:49:35.166Z,100640.00
2018-09-23T22:52:04.054Z,100645.00
2018-09-23T22:54:33.053Z,100653.00
2018-09-23T22:57:01.956Z,100655.00
2018-09-23T22:59:30.854Z,100655.00
2018-09-23T23:01:59.767Z,100665.00
2018-09-23T23:04:28.787Z,100656.00
2018-09-23T23:06:57.712Z,100657.00
2018-09-23T23:09:26.614Z,100664.00
2018-09-23T23:11:55.538Z,100670.00
2018-09-23T23:14:24.434Z,100675.00
2018-09-23T23:16:53.327Z,100681.00
2018-09-23T23:19:22.376Z,100687.00
2018-09-23T23:21:51.251Z,100682.00
2018-09-23T23:24:20.140Z,100686.00
2018-09-23T23:26:49.171Z,100700.00
2018-09-23T23:29:18.392Z,100716.00
2018-09-23T23:31:47.339Z,100722.00
2018-09-23T23:34:16.183Z,100722.00
2018-09-23T23:36:45.061Z,100721.00
2018-09-23T23:39:13.973Z,100734.00
2018-09-23T23:41:42.843Z,100733.00
2018-09-23T23:44:11.744Z,100746.00
2018-09-23T23:46:40.604Z,100749.00
2018-09-23T23:49:09.520Z,100751.00
2018-09-23T23:51:38.709Z,100778.00
2018-09-23T23:54:07.795Z,100771.00
2018-09-23T23:56:36.672Z,100773.00
2018-09-23T23:59:05.663Z,100784.00
